createdAt,value
2017-09-17T00:00:34.112Z,82.64
2017-09-17T00:01:14.684Z,81.88
2017-09-17T00:01:55.251Z,81.97
2017-09-17T00:02:35.783Z,82.07
2017-09-17T00:03:16.350Z,82.54
2017-09-17T00:03:56.916Z,81.88
2017-09-17T00:04:37.482Z,82.64
2017-09-17T00:05:18.025Z,82.83
2017-09-17T00:05:58.552Z,81.97
2017-09-17T00:06:39.110Z,82.45
2017-09-17T00:07:19.654Z,82.45
2017-09-17T00:08:00.227Z,82.83
2017-09-17T00:08:40.753Z,82.45
2017-09-17T00:09:21.309Z,82.45
2017-09-17T00:10:01.845Z,82.26
2017-09-17T00:10:42.400Z,82.26
2017-09-17T00:11:22.962Z,82.83
2017-09-17T00:12:03.480Z,82.45
2017-09-17T00:12:44.024Z,82.35
2017-09-17T00:13:24.575Z,82.26
2017-09-17T00:14:05.127Z,82.26
2017-09-17T00:14:45.677Z,82.45
2017-09-17T00:15:26.204Z,82.35
2017-09-17T00:16:06.733Z,82.17
2017-09-17T00:18:19.530Z,82.64
2017-09-17T00:19:00.050Z,82.74
2017-09-17T00:19:40.636Z,82.83
2017-09-17T00:20:21.149Z,82.45
2017-09-17T00:21:01.692Z,82.45
2017-09-17T00:21:42.259Z,82.35
2017-09-17T00:22:22.813Z,82.35
2017-09-17T00:23:03.365Z,82.45
2017-09-17T00:23:43.921Z,82.35
2017-09-17T00:24:24.447Z,82.31
2017-09-17T00:25:04.992Z,82.12
2017-09-17T00:25:45.542Z,83.08
2017-09-17T00:26:26.096Z,83.37
2017-09-17T00:27:06.651Z,82.12
2017-09-17T00:27:47.205Z,82.45
2017-09-17T00:28:27.745Z,82.17
2017-09-17T00:29:08.300Z,82.07
2017-09-17T00:29:48.855Z,82.07
2017-09-17T00:30:29.448Z,82.26
2017-09-17T00:31:10.000Z,81.97
2017-09-17T00:31:50.554Z,81.88
2017-09-17T00:32:31.081Z,82.07
2017-09-17T00:33:11.633Z,81.59
2017-09-17T00:33:52.180Z,82.07
2017-09-17T00:34:32.739Z,82.07
2017-09-17T00:35:13.289Z,82.45
2017-09-17T00:35:53.858Z,82.07
2017-09-17T00:36:34.400Z,81.68
2017-09-17T00:37:14.973Z,81.88
2017-09-17T00:37:55.498Z,82.17
2017-09-17T00:38:36.051Z,81.49
2017-09-17T00:39:16.605Z,81.97
2017-09-17T00:39:57.174Z,81.88
2017-09-17T00:40:37.715Z,81.97
2017-09-17T00:41:18.260Z,82.17
2017-09-17T00:41:58.799Z,81.21
2017-09-17T00:42:39.365Z,81.4
2017-09-17T00:43:19.901Z,81.3
2017-09-17T00:44:00.468Z,81.21
2017-09-17T00:44:41.025Z,81.68
2017-09-17T00:45:21.543Z,81.3
2017-09-17T00:46:02.098Z,81.4
2017-09-17T00:46:42.603Z,81.49
2017-09-17T00:47:23.154Z,81.4
2017-09-17T00:48:03.697Z,81.68
2017-09-17T00:48:44.260Z,81.49
2017-09-17T00:49:24.815Z,81.11
2017-09-17T00:50:05.364Z,81.4
2017-09-17T00:50:45.912Z,81.49
2017-09-17T00:51:26.440Z,81.49
2017-09-17T00:52:06.999Z,82.07
2017-09-17T00:52:47.571Z,81.4
2017-09-17T00:53:28.118Z,82.07
2017-09-17T00:54:08.663Z,81.88
2017-09-17T00:54:49.195Z,81.4
2017-09-17T00:55:29.758Z,81.49
2017-09-17T00:56:10.287Z,81.4
2017-09-17T00:56:50.831Z,81.11
2017-09-17T00:57:31.396Z,81.3
2017-09-17T00:58:11.953Z,81.4
2017-09-17T00:58:52.488Z,81.3
2017-09-17T00:59:33.047Z,81.3
2017-09-17T01:00:13.596Z,81.4
2017-09-17T01:00:54.128Z,81.4
2017-09-17T01:01:34.678Z,80.82
2017-09-17T01:02:15.229Z,81.49
2017-09-17T01:02:55.806Z,81.3
2017-09-17T01:03:36.292Z,81.3
2017-09-17T01:04:16.831Z,81.3
2017-09-17T01:04:57.363Z,81.68
2017-09-17T01:05:37.933Z,81.59
2017-09-17T01:06:18.502Z,81.3
2017-09-17T01:06:59.015Z,81.4
2017-09-17T01:07:39.585Z,81.21
2017-09-17T01:08:20.138Z,81.21
2017-09-17T01:09:00.683Z,81.97
2017-09-17T01:09:41.221Z,82.07
2017-09-17T01:10:21.755Z,81.78
2017-09-17T01:11:02.294Z,81.97
2017-09-17T01:11:42.828Z,81.4
2017-09-17T01:12:23.340Z,81.3
2017-09-17T01:13:03.881Z,81.4
2017-09-17T01:13:44.384Z,81.4
2017-09-17T01:14:24.942Z,81.49
2017-09-17T01:15:05.479Z,81.68
2017-09-17T01:15:46.001Z,81.78
2017-09-17T01:16:26.555Z,81.49
2017-09-17T01:17:07.144Z,81.3
2017-09-17T01:17:47.629Z,81.3
2017-09-17T01:18:28.182Z,81.11
2017-09-17T01:19:08.742Z,81.59
2017-09-17T01:19:49.296Z,80.73
2017-09-17T01:20:29.823Z,81.49
2017-09-17T01:21:10.396Z,81.21
2017-09-17T01:21:50.945Z,81.59
2017-09-17T01:22:31.484Z,81.3
2017-09-17T01:23:12.036Z,81.3
2017-09-17T01:23:52.583Z,81.78
2017-09-17T01:24:33.123Z,81.78
2017-09-17T01:25:13.655Z,81.3
2017-09-17T01:25:54.200Z,81.21
2017-09-17T01:26:34.744Z,81.78
2017-09-17T01:27:15.260Z,81.59
2017-09-17T01:27:55.834Z,82.35
2017-09-17T01:28:36.357Z,82.17
2017-09-17T01:29:16.939Z,82.35
2017-09-17T01:29:57.448Z,82.54
2017-09-17T01:30:37.993Z,82.03
2017-09-17T01:31:18.541Z,82.26
2017-09-17T01:31:59.120Z,82.22
2017-09-17T01:32:39.674Z,82.12
2017-09-17T01:33:20.238Z,82.31
2017-09-17T01:34:00.782Z,82.35
2017-09-17T01:34:41.299Z,82.41
2017-09-17T01:35:21.840Z,82.26
2017-09-17T01:36:02.403Z,82.41
2017-09-17T01:36:42.957Z,82.12
2017-09-17T01:37:23.505Z,82.12
2017-09-17T01:38:04.041Z,82.17
2017-09-17T01:38:44.554Z,81.84
2017-09-17T01:39:25.119Z,81.74
2017-09-17T01:40:05.705Z,81.78
2017-09-17T01:40:46.266Z,82.07
2017-09-17T01:41:26.776Z,82.26
2017-09-17T01:42:07.326Z,81.74
2017-09-17T01:42:47.881Z,82.17
2017-09-17T01:43:28.407Z,82.31
2017-09-17T01:44:08.970Z,82.31
2017-09-17T01:44:49.528Z,81.97
2017-09-17T01:45:30.074Z,82.22
2017-09-17T01:46:10.617Z,82.64
2017-09-17T01:46:51.164Z,82.6
2017-09-17T01:47:31.721Z,81.97
2017-09-17T01:48:12.278Z,82.51
2017-09-17T01:48:52.818Z,81.84
2017-09-17T01:49:33.354Z,82.22
2017-09-17T01:50:13.873Z,82.22
2017-09-17T01:50:54.441Z,82.51
2017-09-17T01:51:34.957Z,82.7
2017-09-17T01:52:15.482Z,82.31
2017-09-17T01:52:56.040Z,82.31
2017-09-17T01:53:36.592Z,81.97
2017-09-17T01:54:17.130Z,82.03
2017-09-17T01:54:57.691Z,82.41
2017-09-17T01:55:38.224Z,81.84
2017-09-17T01:56:18.760Z,81.65
2017-09-17T01:56:59.302Z,81.65
2017-09-17T01:57:39.830Z,82.31
2017-09-17T01:58:20.355Z,82.22
2017-09-17T01:59:00.896Z,82.12
2017-09-17T01:59:41.456Z,82.03
2017-09-17T02:00:22.009Z,81.49
2017-09-17T02:01:02.560Z,81.84
2017-09-17T02:01:43.118Z,82.31
2017-09-17T02:02:23.654Z,81.84
2017-09-17T02:03:04.215Z,82.31
2017-09-17T02:04:52.210Z,82.41
2017-09-17T02:05:32.784Z,81.93
2017-09-17T02:06:13.309Z,81.55
2017-09-17T02:06:53.867Z,81.74
2017-09-17T02:07:34.423Z,81.65
2017-09-17T02:08:14.946Z,82.12
2017-09-17T02:08:55.521Z,82.41
2017-09-17T02:09:36.063Z,82.12
2017-09-17T02:10:16.565Z,82.12
2017-09-17T02:10:57.141Z,81.65
2017-09-17T02:11:37.679Z,81.93
2017-09-17T02:12:18.222Z,81.93
2017-09-17T02:12:58.772Z,82.03
2017-09-17T02:13:39.299Z,81.84
2017-09-17T02:14:19.855Z,81.26
2017-09-17T02:15:00.418Z,81.26
2017-09-17T02:15:40.937Z,81.45
2017-09-17T02:16:21.475Z,81.26
2017-09-17T02:17:02.047Z,81.45
2017-09-17T02:17:42.575Z,81.84
2017-09-17T02:18:23.133Z,81.55
2017-09-17T02:19:03.668Z,81.65
2017-09-17T02:19:44.198Z,81.55
2017-09-17T02:20:24.730Z,81.74
2017-09-17T02:21:05.263Z,81.07
2017-09-17T02:21:45.785Z,82.03
2017-09-17T02:22:26.365Z,81.84
2017-09-17T02:23:06.887Z,82.12
2017-09-17T02:23:47.437Z,82.31
2017-09-17T02:24:27.950Z,82.31
2017-09-17T02:25:08.481Z,82.31
2017-09-17T02:25:49.032Z,82.03
2017-09-17T02:26:29.536Z,82.31
2017-09-17T02:27:10.080Z,82.31
2017-09-17T02:27:50.641Z,82.41
2017-09-17T02:28:31.158Z,82.31
2017-09-17T02:29:11.701Z,82.22
2017-09-17T02:29:52.218Z,82.51
2017-09-17T02:30:32.764Z,82.03
2017-09-17T02:31:13.332Z,82.22
2017-09-17T02:31:53.865Z,81.74
2017-09-17T02:32:34.373Z,82.08
2017-09-17T02:33:14.917Z,81.93
2017-09-17T02:33:55.466Z,81.99
2017-09-17T02:34:36.024Z,81.74
2017-09-17T02:35:16.594Z,82.03
2017-09-17T02:35:57.148Z,82.22
2017-09-17T02:36:37.686Z,82.6
2017-09-17T02:37:18.221Z,82.12
2017-09-17T02:37:58.771Z,82.22
2017-09-17T02:38:39.369Z,82.31
2017-09-17T02:39:19.932Z,82.22
2017-09-17T02:40:00.485Z,82.22
2017-09-17T02:40:41.032Z,82.46
2017-09-17T02:41:21.557Z,82.03
2017-09-17T02:42:02.091Z,82.03
2017-09-17T02:42:42.614Z,82.12
2017-09-17T02:43:23.154Z,82.31
2017-09-17T02:44:03.674Z,82.28
2017-09-17T02:44:44.229Z,82.31
2017-09-17T02:45:24.779Z,82.12
2017-09-17T02:46:05.356Z,81.65
2017-09-17T02:46:45.872Z,81.84
2017-09-17T02:47:26.385Z,81.07
2017-09-17T02:48:06.950Z,81.55
2017-09-17T02:48:47.485Z,80.98
2017-09-17T02:49:27.997Z,81.74
2017-09-17T02:50:08.567Z,81.74
2017-09-17T02:50:49.062Z,81.74
2017-09-17T02:51:29.621Z,81.93
2017-09-17T02:52:10.172Z,81.99
2017-09-17T02:52:50.668Z,82.12
2017-09-17T02:53:31.221Z,82.28
2017-09-17T02:54:11.774Z,82.18
2017-09-17T02:54:52.331Z,82.46
2017-09-17T02:55:32.897Z,82.18
2017-09-17T02:56:13.427Z,81.99
2017-09-17T02:56:53.946Z,82.08
2017-09-17T02:57:34.470Z,81.99
2017-09-17T02:58:15.008Z,81.79
2017-09-17T02:58:55.586Z,81.79
2017-09-17T02:59:36.113Z,81.99
2017-09-17T03:00:16.654Z,81.99
2017-09-17T03:00:57.224Z,82.18
2017-09-17T03:01:37.752Z,82.18
2017-09-17T03:02:18.286Z,82.08
2017-09-17T03:02:58.849Z,82.18
2017-09-17T03:03:39.395Z,81.79
2017-09-17T03:04:19.941Z,82.18
2017-09-17T03:05:00.514Z,82.08
2017-09-17T03:05:41.114Z,82.28
2017-09-17T03:06:21.672Z,82.08
2017-09-17T03:07:02.176Z,82.46
2017-09-17T03:07:42.693Z,81.55
2017-09-17T03:08:23.251Z,81.93
2017-09-17T03:09:03.795Z,81.93
2017-09-17T03:09:44.342Z,81.93
2017-09-17T03:10:24.958Z,81.65
2017-09-17T03:11:05.486Z,82.22
2017-09-17T03:11:46.020Z,82.37
2017-09-17T03:12:26.595Z,82.41
2017-09-17T03:13:07.119Z,82.12
2017-09-17T03:13:47.668Z,82.03
2017-09-17T03:14:28.251Z,82.12
2017-09-17T03:15:08.774Z,82.28
2017-09-17T03:15:49.294Z,82.08
2017-09-17T03:16:29.817Z,81.99
2017-09-17T03:17:10.349Z,81.99
2017-09-17T03:17:50.889Z,81.89
2017-09-17T03:18:31.447Z,82.18
2017-09-17T03:19:11.973Z,82.08
2017-09-17T03:19:52.503Z,81.79
2017-09-17T03:20:33.032Z,81.99
2017-09-17T03:21:13.543Z,82.28
2017-09-17T03:21:54.072Z,81.99
2017-09-17T03:22:34.594Z,82.37
2017-09-17T03:23:15.155Z,82.28
2017-09-17T03:23:55.700Z,82.37
2017-09-17T03:24:36.255Z,82.28
2017-09-17T03:25:16.799Z,82.65
2017-09-17T03:25:57.378Z,81.79
2017-09-17T03:26:37.924Z,81.99
2017-09-17T03:27:18.481Z,82.65
2017-09-17T03:27:59.034Z,82.37
2017-09-17T03:28:39.569Z,82.28
2017-09-17T03:29:20.136Z,82.28
2017-09-17T03:30:00.656Z,82.56
2017-09-17T03:30:41.212Z,82.28
2017-09-17T03:31:21.749Z,82.65
2017-09-17T03:32:02.269Z,82.37
2017-09-17T03:32:42.832Z,82.75
2017-09-17T03:33:23.365Z,82.37
2017-09-17T03:34:03.896Z,82.28
2017-09-17T03:34:44.429Z,82.18
2017-09-17T03:35:25.011Z,82.46
2017-09-17T03:36:05.533Z,82.56
2017-09-17T03:36:46.096Z,82.28
2017-09-17T03:37:26.621Z,81.99
2017-09-17T03:38:07.170Z,82.37
2017-09-17T03:38:47.741Z,82.08
2017-09-17T03:39:28.253Z,83.23
2017-09-17T03:40:08.815Z,82.37
2017-09-17T03:40:49.375Z,81.79
2017-09-17T03:41:29.931Z,82.37
2017-09-17T03:42:10.492Z,82.56
2017-09-17T03:42:51.076Z,82.18
2017-09-17T03:43:31.585Z,82.18
2017-09-17T03:44:12.125Z,81.99
2017-09-17T03:44:52.690Z,82.46
2017-09-17T03:45:33.229Z,81.79
2017-09-17T03:46:13.772Z,81.89
2017-09-17T03:46:54.285Z,81.99
2017-09-17T03:47:34.839Z,82.08
2017-09-17T03:48:15.342Z,81.79
2017-09-17T03:48:55.923Z,81.79
2017-09-17T03:49:36.444Z,81.99
2017-09-17T03:50:16.976Z,81.99
2017-09-17T03:50:57.527Z,82.18
2017-09-17T03:51:38.118Z,81.99
2017-09-17T03:52:18.617Z,82.08
2017-09-17T03:52:59.147Z,82.28
2017-09-17T03:53:39.700Z,82.37
2017-09-17T03:54:20.261Z,82.46
2017-09-17T03:55:00.809Z,82.08
2017-09-17T03:55:41.372Z,82.28
2017-09-17T03:56:21.891Z,82.28
2017-09-17T03:57:02.409Z,82.18
2017-09-17T03:57:43.005Z,81.99
2017-09-17T03:58:23.543Z,82.18
2017-09-17T03:59:04.070Z,82.46
2017-09-17T03:59:44.623Z,82.28
2017-09-17T04:00:25.157Z,82.18
2017-09-17T04:01:05.697Z,81.6
2017-09-17T04:01:46.238Z,82.18
2017-09-17T04:02:26.806Z,82.46
2017-09-17T04:03:07.385Z,82.18
2017-09-17T04:03:47.883Z,82.37
2017-09-17T04:04:28.448Z,82.56
2017-09-17T04:05:08.972Z,82.46
2017-09-17T04:05:49.547Z,82.37
2017-09-17T04:06:30.071Z,81.99
2017-09-17T04:07:10.612Z,82.37
2017-09-17T04:07:51.150Z,82.37
2017-09-17T04:08:31.676Z,81.99
2017-09-17T04:09:12.265Z,82.18
2017-09-17T04:09:52.806Z,82.28
2017-09-17T04:10:33.356Z,82.28
2017-09-17T04:11:13.930Z,82.14
2017-09-17T04:11:54.432Z,82.18
2017-09-17T04:12:34.978Z,82.46
2017-09-17T04:13:15.509Z,82.28
2017-09-17T04:13:56.062Z,82.18
2017-09-17T04:14:36.598Z,82.08
2017-09-17T04:15:17.132Z,82.18
2017-09-17T04:15:57.677Z,81.99
2017-09-17T04:16:38.214Z,81.95
2017-09-17T04:17:18.773Z,82.18
2017-09-17T04:17:59.303Z,82.28
2017-09-17T04:18:39.870Z,82.28
2017-09-17T04:19:20.406Z,82.18
2017-09-17T04:20:00.932Z,82.18
2017-09-17T04:20:41.489Z,82.23
2017-09-17T04:21:22.014Z,81.95
2017-09-17T04:22:02.568Z,82.18
2017-09-17T04:22:43.087Z,82.18
2017-09-17T04:23:23.635Z,82.14
2017-09-17T04:24:04.184Z,81.95
2017-09-17T04:24:44.748Z,82.14
2017-09-17T04:25:25.285Z,82.42
2017-09-17T04:26:05.832Z,81.85
2017-09-17T04:26:46.376Z,81.76
2017-09-17T04:27:26.939Z,81.85
2017-09-17T04:28:07.499Z,81.85
2017-09-17T04:28:48.058Z,82.04
2017-09-17T04:29:28.587Z,81.66
2017-09-17T04:30:09.157Z,81.85
2017-09-17T04:30:49.683Z,82.71
2017-09-17T04:31:30.238Z,81.66
2017-09-17T04:32:10.820Z,82.14
2017-09-17T04:32:51.380Z,82.37
2017-09-17T04:33:31.919Z,81.51
2017-09-17T04:34:12.464Z,81.56
2017-09-17T04:34:52.991Z,81.6
2017-09-17T04:35:33.549Z,81.56
2017-09-17T04:36:14.096Z,81.47
2017-09-17T04:36:54.668Z,81.85
2017-09-17T04:37:35.199Z,82.42
2017-09-17T04:38:15.743Z,82.23
2017-09-17T04:38:56.294Z,82.23
2017-09-17T04:39:36.859Z,81.95
2017-09-17T04:40:17.353Z,82.32
2017-09-17T04:40:57.879Z,81.85
2017-09-17T04:41:38.431Z,82.23
2017-09-17T04:42:18.959Z,82.14
2017-09-17T04:42:59.508Z,82.32
2017-09-17T04:43:40.072Z,82.04
2017-09-17T04:44:20.608Z,81.95
2017-09-17T04:45:01.154Z,82.32
2017-09-17T04:45:41.731Z,82.14
2017-09-17T04:46:22.248Z,81.51
2017-09-17T04:47:02.789Z,81.7
2017-09-17T04:47:43.336Z,81.89
2017-09-17T04:48:23.864Z,81.56
2017-09-17T04:49:04.437Z,81.99
2017-09-17T04:49:44.948Z,81.03
2017-09-17T04:50:25.471Z,81.22
2017-09-17T04:51:06.049Z,81.79
2017-09-17T04:51:46.569Z,81.89
2017-09-17T04:52:27.086Z,81.66
2017-09-17T04:53:07.668Z,81.89
2017-09-17T04:53:48.183Z,81.51
2017-09-17T04:54:28.748Z,81.95
2017-09-17T04:55:09.289Z,81.79
2017-09-17T04:55:49.849Z,81.89
2017-09-17T04:56:30.367Z,81.79
2017-09-17T04:57:10.938Z,81.41
2017-09-17T04:57:51.452Z,81.6
2017-09-17T04:58:32.000Z,81.89
2017-09-17T04:59:12.539Z,81.7
2017-09-17T04:59:53.113Z,81.32
2017-09-17T05:00:33.607Z,81.32
2017-09-17T05:02:47.388Z,81.66
2017-09-17T05:03:27.944Z,81.99
2017-09-17T05:04:08.477Z,81.85
2017-09-17T05:04:49.024Z,81.56
2017-09-17T05:05:29.550Z,81.95
2017-09-17T05:06:10.094Z,82.04
2017-09-17T05:06:50.625Z,81.76
2017-09-17T05:07:31.189Z,81.6
2017-09-17T05:08:11.734Z,81.32
2017-09-17T05:08:52.262Z,81.13
2017-09-17T05:09:32.802Z,81.41
2017-09-17T05:10:13.337Z,81.22
2017-09-17T05:10:53.952Z,81.6
2017-09-17T05:11:34.448Z,82.08
2017-09-17T05:12:14.954Z,81.22
2017-09-17T05:12:55.483Z,81.32
2017-09-17T05:13:36.025Z,81.79
2017-09-17T05:14:16.558Z,81.79
2017-09-17T05:14:57.092Z,81.89
2017-09-17T05:15:37.652Z,81.79
2017-09-17T05:16:18.173Z,81.41
2017-09-17T05:16:58.702Z,81.7
2017-09-17T05:17:39.250Z,81.6
2017-09-17T05:18:19.786Z,81.32
2017-09-17T05:19:00.298Z,81.41
2017-09-17T05:19:40.848Z,81.22
2017-09-17T05:20:21.377Z,81.32
2017-09-17T05:21:01.924Z,81.6
2017-09-17T05:21:42.478Z,80.93
2017-09-17T05:22:23.034Z,80.55
2017-09-17T05:23:03.575Z,81.41
2017-09-17T05:23:44.149Z,81.51
2017-09-17T05:24:24.690Z,80.74
2017-09-17T05:25:05.215Z,81.51
2017-09-17T05:25:45.771Z,81.41
2017-09-17T05:26:26.330Z,81.22
2017-09-17T05:27:06.891Z,81.32
2017-09-17T05:27:47.426Z,81.22
2017-09-17T05:28:27.993Z,81.41
2017-09-17T05:29:08.573Z,81.7
2017-09-17T05:29:49.151Z,81.03
2017-09-17T05:30:29.650Z,81.22
2017-09-17T05:31:10.207Z,81.22
2017-09-17T05:31:50.728Z,81.22
2017-09-17T05:32:31.269Z,81.03
2017-09-17T05:33:11.820Z,81.22
2017-09-17T05:33:52.309Z,81.22
2017-09-17T05:34:32.824Z,81.22
2017-09-17T05:35:13.368Z,81.32
2017-09-17T05:35:53.901Z,81.51
2017-09-17T05:36:34.392Z,81.32
2017-09-17T05:37:14.933Z,81.22
2017-09-17T05:37:55.466Z,80.65
2017-09-17T05:38:36.015Z,80.84
2017-09-17T05:39:16.580Z,81.32
2017-09-17T05:39:57.066Z,80.93
2017-09-17T05:40:37.660Z,81.03
2017-09-17T05:41:18.151Z,80.74
2017-09-17T05:41:58.708Z,80.36
2017-09-17T05:42:39.225Z,80.84
2017-09-17T05:43:19.795Z,81.6
2017-09-17T05:44:00.319Z,81.13
2017-09-17T05:44:40.894Z,81.22
2017-09-17T05:45:21.420Z,80.65
2017-09-17T05:46:01.929Z,80.74
2017-09-17T05:46:42.489Z,81.32
2017-09-17T05:47:23.032Z,81.13
2017-09-17T05:48:03.572Z,80.84
2017-09-17T05:48:44.119Z,80.55
2017-09-17T05:49:24.661Z,81.03
2017-09-17T05:50:05.189Z,80.93
2017-09-17T05:50:46.345Z,80.84
2017-09-17T05:51:26.884Z,81.03
2017-09-17T05:52:07.408Z,80.36
2017-09-17T05:52:47.962Z,80.46
2017-09-17T05:53:28.495Z,80.4
2017-09-17T05:54:09.046Z,80.36
2017-09-17T05:54:49.621Z,80.36
2017-09-17T05:55:30.175Z,80.74
2017-09-17T05:56:10.726Z,80.55
2017-09-17T05:56:51.248Z,80.69
2017-09-17T05:57:31.808Z,80.36
2017-09-17T05:58:12.359Z,79.98
2017-09-17T05:58:52.931Z,80.4
2017-09-17T05:59:33.503Z,80.21
2017-09-17T06:00:14.009Z,80.3
2017-09-17T06:00:54.558Z,80.21
2017-09-17T06:01:35.096Z,79.93
2017-09-17T06:02:15.625Z,80.4
2017-09-17T06:02:56.140Z,80.21
2017-09-17T06:03:36.683Z,79.35
2017-09-17T06:04:17.231Z,79.73
2017-09-17T06:04:57.808Z,79.93
2017-09-17T06:05:38.345Z,79.35
2017-09-17T06:06:18.897Z,78.87
2017-09-17T06:06:59.403Z,78.49
2017-09-17T06:07:40.000Z,78.87
2017-09-17T06:08:20.487Z,78.58
2017-09-17T06:09:01.016Z,78.58
2017-09-17T06:09:41.546Z,78.39
2017-09-17T06:10:22.085Z,78.97
2017-09-17T06:11:02.616Z,79.35
2017-09-17T06:11:43.168Z,78.78
2017-09-17T06:12:23.739Z,78.39
2017-09-17T06:13:04.320Z,78.68
2017-09-17T06:13:44.869Z,78.97
2017-09-17T06:14:25.420Z,78.14
2017-09-17T06:15:05.945Z,78.24
2017-09-17T06:15:46.503Z,78.34
2017-09-17T06:16:27.071Z,77.82
2017-09-17T06:17:07.628Z,77.76
2017-09-17T06:17:48.190Z,78.24
2017-09-17T06:18:28.768Z,77.57
2017-09-17T06:19:09.272Z,78.24
2017-09-17T06:19:49.846Z,77.57
2017-09-17T06:20:30.342Z,78.05
2017-09-17T06:21:10.888Z,78.14
2017-09-17T06:21:51.432Z,78.53
2017-09-17T06:22:31.947Z,78.24
2017-09-17T06:23:12.536Z,78.34
2017-09-17T06:23:53.052Z,78.24
2017-09-17T06:24:33.592Z,78.14
2017-09-17T06:25:14.142Z,77.28
2017-09-17T06:25:54.686Z,77.86
2017-09-17T06:26:35.221Z,77.95
2017-09-17T06:27:15.756Z,77.67
2017-09-17T06:27:56.296Z,77.57
2017-09-17T06:28:36.814Z,77.67
2017-09-17T06:29:17.392Z,77.76
2017-09-17T06:29:57.904Z,78.05
2017-09-17T06:30:38.471Z,77.95
2017-09-17T06:31:18.991Z,77.76
2017-09-17T06:31:59.550Z,78.14
2017-09-17T06:32:40.102Z,77.57
2017-09-17T06:33:20.673Z,77.67
2017-09-17T06:34:01.202Z,76.81
2017-09-17T06:34:41.714Z,77.09
2017-09-17T06:35:22.252Z,77.04
2017-09-17T06:36:02.791Z,76.81
2017-09-17T06:36:43.317Z,76.84
2017-09-17T06:37:23.856Z,76.62
2017-09-17T06:38:04.433Z,76.42
2017-09-17T06:38:44.959Z,76.42
2017-09-17T06:39:25.526Z,76.27
2017-09-17T06:40:06.059Z,76.71
2017-09-17T06:40:46.622Z,76.75
2017-09-17T06:41:27.183Z,76.75
2017-09-17T06:42:07.742Z,76.84
2017-09-17T06:42:48.293Z,76.37
2017-09-17T06:43:28.817Z,76.27
2017-09-17T06:44:09.369Z,77
2017-09-17T06:44:49.896Z,77.09
2017-09-17T06:45:30.467Z,77.09
2017-09-17T06:46:11.039Z,76.75
2017-09-17T06:46:51.569Z,76.94
2017-09-17T06:47:32.096Z,76.27
2017-09-17T06:48:12.636Z,76.84
2017-09-17T06:48:53.190Z,76.65
2017-09-17T06:49:33.732Z,76.84
2017-09-17T06:50:14.275Z,77.04
2017-09-17T06:50:54.796Z,76.56
2017-09-17T06:51:35.380Z,75.79
2017-09-17T06:52:15.919Z,74.74
2017-09-17T06:52:56.465Z,74.74
2017-09-17T06:53:36.975Z,75.22
2017-09-17T06:54:17.506Z,75.12
2017-09-17T06:54:58.053Z,75.89
2017-09-17T06:55:38.613Z,75.79
2017-09-17T06:56:19.121Z,75.89
2017-09-17T06:56:59.665Z,75.22
2017-09-17T06:57:40.205Z,75.31
2017-09-17T06:58:20.752Z,75.41
2017-09-17T06:59:01.300Z,75.22
2017-09-17T06:59:41.801Z,75.16
2017-09-17T07:00:22.322Z,74.87
2017-09-17T07:01:04.074Z,74.49
2017-09-17T07:01:44.567Z,74.87
2017-09-17T07:02:25.124Z,74.3
2017-09-17T07:03:05.614Z,74.58
2017-09-17T07:03:46.162Z,74.2
2017-09-17T07:04:26.740Z,74.49
2017-09-17T07:05:07.279Z,74.2
2017-09-17T07:05:47.828Z,74.11
2017-09-17T07:06:28.403Z,74.49
2017-09-17T07:07:08.989Z,74.2
2017-09-17T07:07:49.550Z,74.3
2017-09-17T07:08:30.071Z,74.01
2017-09-17T07:09:10.628Z,73.91
2017-09-17T07:09:51.174Z,74.3
2017-09-17T07:10:31.752Z,73.82
2017-09-17T07:11:12.338Z,74.11
2017-09-17T07:11:52.852Z,73.63
2017-09-17T07:12:33.413Z,73.82
2017-09-17T07:13:13.967Z,74.05
2017-09-17T07:13:54.521Z,73.54
2017-09-17T07:14:35.076Z,73.86
2017-09-17T07:15:15.610Z,73.86
2017-09-17T07:15:56.173Z,73.44
2017-09-17T07:16:36.764Z,73.72
2017-09-17T07:17:17.295Z,74.2
2017-09-17T07:17:57.819Z,73.54
2017-09-17T07:18:38.359Z,74.2
2017-09-17T07:19:18.933Z,73.24
2017-09-17T07:19:59.524Z,74.01
2017-09-17T07:20:40.044Z,73.47
2017-09-17T07:21:20.600Z,74.05
2017-09-17T07:22:01.132Z,73.63
2017-09-17T07:22:41.667Z,74.33
2017-09-17T07:23:22.197Z,74.15
2017-09-17T07:24:02.756Z,73.66
2017-09-17T07:24:43.292Z,73.82
2017-09-17T07:25:23.888Z,73.76
2017-09-17T07:26:04.386Z,73.66
2017-09-17T07:26:44.937Z,73.19
2017-09-17T07:27:25.487Z,73.86
2017-09-17T07:28:05.982Z,73.95
2017-09-17T07:28:46.548Z,73.38
2017-09-17T07:29:27.043Z,73.38
2017-09-17T07:30:07.622Z,73.38
2017-09-17T07:30:48.181Z,73.57
2017-09-17T07:31:28.771Z,73.66
2017-09-17T07:32:09.291Z,72.9
2017-09-17T07:32:49.854Z,73.47
2017-09-17T07:33:30.362Z,73.19
2017-09-17T07:34:10.907Z,73.28
2017-09-17T07:34:51.436Z,73.38
2017-09-17T07:35:32.005Z,73.76
2017-09-17T07:36:12.569Z,73.47
2017-09-17T07:36:53.081Z,73.09
2017-09-17T07:37:33.641Z,73.19
2017-09-17T07:38:14.224Z,73.66
2017-09-17T07:38:54.765Z,73.57
2017-09-17T07:39:35.257Z,73.95
2017-09-17T07:40:15.786Z,73.41
2017-09-17T07:40:56.311Z,73.13
2017-09-17T07:41:36.864Z,73.61
2017-09-17T07:42:17.395Z,73.41
2017-09-17T07:42:57.945Z,73.51
2017-09-17T07:43:38.452Z,72.94
2017-09-17T07:44:18.970Z,73.7
2017-09-17T07:44:59.540Z,72.94
2017-09-17T07:45:40.085Z,73.41
2017-09-17T07:46:20.631Z,73.99
2017-09-17T07:47:01.209Z,73.51
2017-09-17T07:47:41.779Z,73.32
2017-09-17T07:48:22.331Z,72.84
2017-09-17T07:49:02.849Z,73.03
2017-09-17T07:49:43.381Z,73.41
2017-09-17T07:50:23.911Z,73.13
2017-09-17T07:51:04.459Z,73.13
2017-09-17T07:51:45.009Z,72.74
2017-09-17T07:52:25.530Z,72.27
2017-09-17T07:53:06.173Z,72.27
2017-09-17T07:53:46.669Z,72.74
2017-09-17T07:54:27.253Z,73.13
2017-09-17T07:55:07.812Z,72.84
2017-09-17T07:55:48.383Z,72.64
2017-09-17T07:56:28.891Z,73.32
2017-09-17T07:57:09.409Z,72.84
2017-09-17T07:57:49.924Z,73.22
2017-09-17T07:58:30.464Z,73.03
2017-09-17T07:59:11.029Z,72.74
2017-09-17T07:59:51.590Z,72.84
2017-09-17T08:00:32.138Z,72.84
2017-09-17T08:01:12.608Z,73.03
2017-09-17T08:01:53.176Z,73.13
2017-09-17T08:02:33.676Z,73.03
2017-09-17T08:03:14.252Z,72.74
2017-09-17T08:03:54.833Z,72.45
2017-09-17T08:04:35.344Z,72.27
2017-09-17T08:05:15.882Z,72.84
2017-09-17T08:05:56.422Z,72.94
2017-09-17T08:06:36.967Z,73.32
2017-09-17T08:07:17.527Z,73.03
2017-09-17T08:07:58.068Z,72.94
2017-09-17T08:08:38.619Z,73.07
2017-09-17T08:09:19.102Z,72.97
2017-09-17T08:09:59.655Z,72.59
2017-09-17T08:10:40.255Z,72.45
2017-09-17T08:11:20.788Z,72.45
2017-09-17T08:12:01.336Z,72.39
2017-09-17T08:12:41.856Z,72.64
2017-09-17T08:13:22.397Z,73.07
2017-09-17T08:14:02.983Z,72.97
2017-09-17T08:14:43.536Z,73.26
2017-09-17T08:15:24.080Z,72.97
2017-09-17T08:16:04.610Z,72.78
2017-09-17T08:16:45.122Z,72.68
2017-09-17T08:17:25.645Z,72.78
2017-09-17T08:18:06.181Z,72.59
2017-09-17T08:18:46.756Z,72.59
2017-09-17T08:19:27.335Z,72.59
2017-09-17T08:20:07.837Z,72.39
2017-09-17T08:20:48.378Z,72.59
2017-09-17T08:21:28.929Z,72.78
2017-09-17T08:22:09.470Z,72.97
2017-09-17T08:22:50.053Z,73.32
2017-09-17T08:23:30.654Z,73.74
2017-09-17T08:24:11.223Z,74.08
2017-09-17T08:24:51.738Z,73.83
2017-09-17T08:25:32.299Z,73.83
2017-09-17T08:26:12.800Z,73.45
2017-09-17T08:26:53.360Z,73.74
2017-09-17T08:27:33.911Z,73.26
2017-09-17T08:28:14.473Z,73.26
2017-09-17T08:28:54.995Z,73.65
2017-09-17T08:29:35.543Z,73.35
2017-09-17T08:30:16.132Z,74.12
2017-09-17T08:30:56.631Z,74.22
2017-09-17T08:31:37.158Z,74.08
2017-09-17T08:32:17.707Z,73.93
2017-09-17T08:32:58.242Z,73.55
2017-09-17T08:33:38.808Z,74.08
2017-09-17T08:34:19.320Z,73.45
2017-09-17T08:34:59.854Z,73.45
2017-09-17T08:35:40.407Z,73.7
2017-09-17T08:36:20.913Z,73.51
2017-09-17T08:37:01.463Z,73.8
2017-09-17T08:37:41.998Z,73.51
2017-09-17T08:38:22.506Z,74.37
2017-09-17T08:39:03.105Z,74.66
2017-09-17T08:39:43.588Z,75.14
2017-09-17T08:40:24.147Z,75.68
2017-09-17T08:41:04.943Z,76.1
2017-09-17T08:41:45.421Z,75.9
2017-09-17T08:42:25.957Z,76.29
2017-09-17T08:43:06.476Z,75.71
2017-09-17T08:43:46.970Z,75.62
2017-09-17T08:44:27.548Z,75.27
2017-09-17T08:45:08.108Z,75.08
2017-09-17T08:45:48.609Z,74.66
2017-09-17T08:46:29.146Z,75.18
2017-09-17T08:47:09.702Z,74.89
2017-09-17T08:47:50.248Z,75.37